| time (UTC) | temp C | wind direction | speed KPH | gust KPH | rain 1hr cm | rain 24hr cm | rain mn cm | humidity % | barometer mb |
| 20260903233016 | 32 | 158 | 8.0 | 14.5 | 0.00 | 0.00 | 0.00 | 68 | 992.4 |
| 20260903230017 | 33 | 158 | 6.4 | 12.9 | 0.00 | 0.00 | 0.00 | 65 | 992.7 |
| 20260903223016 | 34 | 158 | 8.0 | 16.1 | 0.00 | 0.00 | 0.00 | 62 | 992.8 |
| 20260903220036 | 35 | 180 | 8.0 | 17.7 | 0.00 | 0.00 | 0.00 | 61 | 993.1 |
| 20260903213016 | 35 | 225 | 9.7 | 14.5 | 0.00 | 0.00 | 0.00 | 59 | 993.4 |
| 20260903210016 | 35 | 203 | 8.0 | 14.5 | 0.00 | 0.00 | 0.00 | 57 | 993.4 |
| 20260903203016 | 35 | 225 | 4.8 | 14.5 | 0.00 | 0.00 | 0.00 | 58 | 993.6 |
| 20260903200016 | 35 | 203 | 4.8 | 11.3 | 0.00 | 0.00 | 0.00 | 59 | 993.7 |
| 20260903193017 | 34 | 158 | 8.0 | 17.7 | 0.00 | 0.00 | 0.00 | 60 | 994.0 |
| 20260903190016 | 34 | 203 | 8.0 | 16.1 | 0.00 | 0.00 | 0.00 | 59 | 994.0 |
| 20260903183016 | 34 | 225 | 6.4 | 14.5 | 0.00 | 0.00 | 0.00 | 61 | 994.2 |
| 20260903180016 | 33 | 225 | 4.8 | 14.5 | 0.00 | 0.00 | 0.00 | 62 | 994.4 |
| 20260903173016 | 33 | 225 | 4.8 | 12.9 | 0.00 | 0.00 | 0.00 | 64 | 994.5 |
| 20260903170018 | 32 | 225 | 8.0 | 17.7 | 0.00 | 0.00 | 0.00 | 64 | 994.8 |
| 20260903163016 | 31 | 225 | 6.4 | 16.1 | 0.00 | 0.00 | 0.00 | 67 | 995.0 |
| 20260903160016 | 30 | 225 | 9.7 | 19.3 | 0.00 | 0.00 | 0.00 | 68 | 995.1 |
| 20260903153016 | 30 | 225 | 11.3 | 20.9 | 0.00 | 0.00 | 0.00 | 70 | 995.0 |
| 20260903150016 | 29 | 225 | 12.9 | 22.5 | 0.00 | 0.00 | 0.00 | 71 | 994.9 |
| 20260903143016 | 28 | 225 | 11.3 | 19.3 | 0.00 | 0.00 | 0.00 | 71 | 994.6 |
| 20260903140016 | 28 | 225 | 11.3 | 22.5 | 0.00 | 0.00 | 0.00 | 72 | 994.6 |
| 20260903133017 | 27 | 203 | 11.3 | 19.3 | 0.00 | 0.00 | 0.00 | 75 | 994.6 |
| 20260903130056 | 26 | 203 | 8.0 | 16.1 | 0.00 | 0.00 | 0.00 | 80 | 994.6 |
| 20260903123016 | 25 | 180 | 6.4 | 11.3 | 0.00 | 0.00 | 0.00 | 81 | 994.6 |
| 20260903120016 | 24 | 158 | 8.0 | 12.9 | 0.00 | 0.00 | 0.00 | 84 | 994.2 |
| 20260903113016 | 24 | 158 | 8.0 | 11.3 | 0.00 | 0.00 | 0.00 | 85 | 994.0 |
| 20260903110036 | 24 | 158 | 8.0 | 12.9 | 0.00 | 0.00 | 0.00 | 85 | 993.9 |
| 20260903103016 | 24 | 158 | 8.0 | 14.5 | 0.00 | 0.00 | 0.00 | 84 | 993.8 |
| 20260903100018 | 25 | 158 | 8.0 | 11.3 | 0.00 | 0.00 | 0.00 | 84 | 993.8 |
| 20260903093038 | 25 | 180 | 6.4 | 11.3 | 0.00 | 0.00 | 0.00 | 82 | 993.7 |
| 20260903090016 | 25 | 180 | 6.4 | 11.3 | 0.00 | 0.00 | 0.00 | 82 | 993.9 |
| 20260903083018 | 25 | 180 | 6.4 | 11.3 | 0.00 | 0.00 | 0.00 | 82 | 993.8 |
| 20260903080016 | 26 | 180 | 6.4 | 11.3 | 0.00 | 0.00 | 0.00 | 81 | 993.7 |
| 20260903073016 | 26 | 180 | 6.4 | 11.3 | 0.00 | 0.00 | 0.00 | 81 | 993.8 |
| 20260903070017 | 26 | 180 | 4.8 | 11.3 | 0.00 | 0.00 | 0.00 | 81 | 994.0 |
| 20260903063016 | 26 | 180 | 4.8 | 9.7 | 0.00 | 0.00 | 0.00 | 81 | 994.1 |
| 20260903060017 | 26 | 180 | 4.8 | 9.7 | 0.00 | 0.00 | 0.00 | 81 | 994.1 |
| 20260903053016 | 26 | 180 | 6.4 | 9.7 | 0.00 | 0.00 | 0.00 | 81 | 994.2 |
| 20260903050016 | 27 | 180 | 4.8 | 11.3 | 0.00 | 0.00 | 0.00 | 81 | 994.1 |
| 20260903043036 | 27 | 180 | 4.8 | 9.7 | 0.00 | 0.00 | 0.00 | 81 | 994.0 |
| 20260903040036 | 27 | 180 | 4.8 | 11.3 | 0.00 | 0.00 | 0.00 | 80 | 994.0 |
| 20260903033017 | 27 | 180 | 6.4 | 11.3 | 0.00 | 0.00 | 0.00 | 79 | 994.1 |
| 20260903030036 | 28 | 180 | 6.4 | 12.9 | 0.00 | 0.00 | 0.00 | 78 | 994.0 |
| 20260903023016 | 28 | 180 | 4.8 | 9.7 | 0.00 | 0.00 | 0.00 | 76 | 993.9 |
| 20260903020017 | 29 | 158 | 6.4 | 12.9 | 0.00 | 0.00 | 0.00 | 76 | 993.6 |
| 20260903013016 | 29 | 158 | 6.4 | 11.3 | 0.00 | 0.00 | 0.00 | 75 | 993.3 |
| 20260903010016 | 30 | 158 | 6.4 | 11.3 | 0.00 | 0.00 | 0.00 | 73 | 993.2 |
| 20260903003018 | 31 | 158 | 6.4 | 12.9 | 0.00 | 0.00 | 0.00 | 71 | 993.3 |
| 20260903000018 | 32 | 180 | 6.4 | 11.3 | 0.00 | 0.00 | 0.00 | 70 | 993.4 |